Time;durP1;ratioP1;P1;durP2;ratioP2;P2;SDS_P1;SDS_P2;PMS_P1;PMS_P2;Temp;Humidity;BMP_temperature;BMP_pressure;BME280_temperature;BME280_humidity;BME280_pressure;Samples;Min_cycle;Max_cycle;Signal;HPM_P1;HPM_P2
2021/03/16 00:00:18;;;;;;;1999.90;999.90;;;;;;;;;;5117533;28;20309;-37
2021/03/16 00:03:04;;;;;;;1999.90;999.90;;;;;;;;;;5117687;28;20194;-34
2021/03/16 00:05:50;;;;;;;1999.90;999.90;;;;;;;;;;5117228;28;20251;-34
2021/03/16 00:08:35;;;;;;;1999.90;999.90;;;;;;;;;;5117671;28;20200;-34
2021/03/16 00:11:26;;;;;;;1999.90;999.90;;;;;;;;;;5117561;28;20194;-37
2021/03/16 00:14:12;;;;;;;1999.90;999.90;;;;;;;;;;5117540;28;20201;-33
2021/03/16 00:16:58;;;;;;;1999.90;999.90;;;;;;;;;;5117525;28;20471;-37
2021/03/16 00:19:47;;;;;;;1999.90;999.90;;;;;;;;;;5117178;28;20194;-35
2021/03/16 00:22:35;;;;;;;1999.90;999.90;;;;;;;;;;5117112;28;20194;-34
2021/03/16 00:25:35;;;;;;;1999.90;999.90;;;;;;;;;;5117415;28;20673;-35
2021/03/16 00:28:21;;;;;;;1999.90;999.90;;;;;;;;;;5121058;28;20237;-35
2021/03/16 00:31:07;;;;;;;1999.90;999.90;;;;;;;;;;5121349;28;20461;-33
2021/03/16 00:33:54;;;;;;;1999.90;999.90;;;;;;;;;;5120659;28;20204;-37
2021/03/16 00:36:42;;;;;;;1999.90;999.90;;;;;;;;;;5121133;28;20634;-36
2021/03/16 00:39:27;;;;;;;1999.90;999.90;;;;;;;;;;5120558;28;20191;-33
2021/03/16 00:42:13;;;;;;;1999.90;999.90;;;;;;;;;;5120844;28;20366;-38
2021/03/16 00:44:58;;;;;;;1999.90;999.90;;;;;;;;;;5120818;28;20234;-35
2021/03/16 00:47:44;;;;;;;1999.90;999.90;;;;;;;;;;5120740;28;20354;-36
2021/03/16 00:50:31;;;;;;;1999.90;999.90;;;;;;;;;;5120840;28;20204;-37
2021/03/16 00:53:17;;;;;;;1999.90;999.90;;;;;;;;;;5120511;28;20474;-36
2021/03/16 00:56:04;;;;;;;1999.90;999.90;;;;;;;;;;5120823;28;20335;-33
2021/03/16 00:58:51;;;;;;;1999.90;999.90;;;;;;;;;;5120003;28;20208;-36
2021/03/16 01:01:36;;;;;;;1999.90;999.90;;;;;;;;;;5120188;28;20199;-36
2021/03/16 01:04:22;;;;;;;1999.90;999.90;;;;;;;;;;5120813;28;20220;-37
2021/03/16 01:07:11;;;;;;;1999.90;999.90;;;;;;;;;;5120092;28;20337;-35
2021/03/16 01:09:56;;;;;;;1999.90;999.90;;;;;;;;;;5119756;28;20474;-35
2021/03/16 01:12:42;;;;;;;1999.90;999.90;;;;;;;;;;5119854;28;20349;-33
2021/03/16 01:15:27;;;;;;;1999.90;999.90;;;;;;;;;;5119969;28;20201;-37
2021/03/16 01:18:12;;;;;;;1999.90;999.90;;;;;;;;;;5120355;28;20197;-36
2021/03/16 01:20:58;;;;;;;1999.90;999.90;;;;;;;;;;5119694;28;20204;-37
2021/03/16 01:23:46;;;;;;;1999.90;999.90;;;;;;;;;;5119918;28;20307;-33
2021/03/16 01:26:33;;;;;;;1999.90;999.90;;;;;;;;;;5119631;28;20634;-36
2021/03/16 01:29:19;;;;;;;1999.90;999.90;;;;;;;;;;5120444;28;20200;-34
2021/03/16 01:32:05;;;;;;;1999.90;999.90;;;;;;;;;;5119709;28;20594;-33
2021/03/16 01:34:50;;;;;;;1999.90;999.90;;;;;;;;;;5119706;28;20590;-36
2021/03/16 01:37:36;;;;;;;1999.90;999.90;;;;;;;;;;5119547;28;20481;-34
2021/03/16 01:40:26;;;;;;;1999.90;999.90;;;;;;;;;;5119728;28;20207;-33
2021/03/16 01:43:12;;;;;;;1999.90;999.90;;;;;;;;;;5119513;28;20253;-38
2021/03/16 01:45:58;;;;;;;1999.90;999.90;;;;;;;;;;5119451;28;20596;-37
2021/03/16 01:48:44;;;;;;;1999.90;999.90;;;;;;;;;;5119490;28;20203;-36
2021/03/16 01:51:29;;;;;;;1999.90;999.90;;;;;;;;;;5119435;28;20482;-33
2021/03/16 01:54:15;;;;;;;1999.90;999.90;;;;;;;;;;5119181;28;20596;-35
2021/03/16 01:57:03;;;;;;;1999.90;999.90;;;;;;;;;;5119659;28;20256;-34
2021/03/16 01:59:49;;;;;;;1999.90;999.90;;;;;;;;;;5119736;28;20216;-34
2021/03/16 02:02:35;;;;;;;1999.90;999.90;;;;;;;;;;5119566;28;20262;-35
2021/03/16 02:05:20;;;;;;;1999.90;999.90;;;;;;;;;;5119098;28;20202;-37
2021/03/16 02:08:14;;;;;;;1999.90;999.90;;;;;;;;;;5118898;28;20228;-34
2021/03/16 02:11:04;;;;;;;1999.90;999.90;;;;;;;;;;5119397;28;20193;-35
2021/03/16 02:13:53;;;;;;;1999.90;999.90;;;;;;;;;;5119452;28;20203;-34
2021/03/16 02:16:43;;;;;;;1999.90;999.90;;;;;;;;;;5119188;28;20220;-36
2021/03/16 02:19:45;;;;;;;1999.90;999.90;;;;;;;;;;5118871;28;20202;-36
2021/03/16 02:22:32;;;;;;;1999.90;999.90;;;;;;;;;;5118590;28;20198;-36
2021/03/16 02:25:28;;;;;;;1999.90;999.90;;;;;;;;;;5118302;28;20612;-35
2021/03/16 02:28:22;;;;;;;1999.90;999.90;;;;;;;;;;5118549;28;20682;-35
2021/03/16 02:31:09;;;;;;;1999.90;999.90;;;;;;;;;;5118576;28;20194;-32
2021/03/16 02:33:58;;;;;;;1999.90;999.90;;;;;;;;;;5118931;28;20219;-37
2021/03/16 02:36:44;;;;;;;1999.90;999.90;;;;;;;;;;5118639;28;20211;-41
2021/03/16 02:39:30;;;;;;;1999.90;999.90;;;;;;;;;;5118735;28;20405;-37
2021/03/16 02:42:17;;;;;;;1999.90;999.90;;;;;;;;;;5118419;28;20211;-34
2021/03/16 02:45:04;;;;;;;1999.90;999.90;;;;;;;;;;5118384;28;20226;-35
2021/03/16 02:47:50;;;;;;;1999.90;999.90;;;;;;;;;;5118231;28;20229;-33
2021/03/16 02:50:36;;;;;;;1999.90;999.90;;;;;;;;;;5116985;28;20217;-36
2021/03/16 02:53:23;;;;;;;1999.90;999.90;;;;;;;;;;5118019;28;20213;-35
2021/03/16 02:56:09;;;;;;;1999.90;999.90;;;;;;;;;;5118108;28;20263;-36
2021/03/16 02:58:56;;;;;;;1999.90;999.90;;;;;;;;;;5117828;28;20333;-33
2021/03/16 03:01:43;;;;;;;1999.90;999.90;;;;;;;;;;5117690;28;20624;-35
2021/03/16 03:04:30;;;;;;;1999.90;999.90;;;;;;;;;;5117838;28;20194;-34
2021/03/16 03:07:19;;;;;;;1999.90;999.90;;;;;;;;;;5117934;28;20226;-35
2021/03/16 03:10:06;;;;;;;1999.90;999.90;;;;;;;;;;5118149;28;20592;-38
2021/03/16 03:12:51;;;;;;;1999.90;999.90;;;;;;;;;;5118099;28;20336;-35
2021/03/16 03:15:37;;;;;;;1999.90;999.90;;;;;;;;;;5118354;28;20202;-34
2021/03/16 03:18:22;;;;;;;1999.90;999.90;;;;;;;;;;5117541;28;20194;-34
2021/03/16 03:21:13;;;;;;;1999.90;999.90;;;;;;;;;;5117813;28;20256;-36
2021/03/16 03:24:01;;;;;;;1999.90;999.90;;;;;;;;;;5117644;28;20352;-34
2021/03/16 03:26:50;;;;;;;1999.90;999.90;;;;;;;;;;5117826;28;20651;-34
2021/03/16 03:29:36;;;;;;;1999.90;999.90;;;;;;;;;;5118131;28;20268;-35
2021/03/16 03:32:23;;;;;;;1999.90;999.90;;;;;;;;;;5117807;28;20198;-36
2021/03/16 03:35:09;;;;;;;1999.90;999.90;;;;;;;;;;5117829;28;20615;-36
2021/03/16 03:37:57;;;;;;;1999.90;999.90;;;;;;;;;;5117481;28;20287;-33
2021/03/16 03:40:43;;;;;;;1999.90;999.90;;;;;;;;;;5117623;28;20486;-38
2021/03/16 03:43:30;;;;;;;1999.90;999.90;;;;;;;;;;5117253;28;20237;-36
2021/03/16 03:46:19;;;;;;;1999.90;999.90;;;;;;;;;;5117422;28;20198;-34
2021/03/16 03:49:05;;;;;;;1999.90;999.90;;;;;;;;;;5117204;28;20588;-37
2021/03/16 03:51:51;;;;;;;1999.90;999.90;;;;;;;;;;5117803;28;20198;-37
2021/03/16 03:54:41;;;;;;;1999.90;999.90;;;;;;;;;;5117241;28;20481;-35
2021/03/16 03:57:27;;;;;;;1999.90;999.90;;;;;;;;;;5116840;28;20476;-33
2021/03/16 04:00:13;;;;;;;1999.90;999.90;;;;;;;;;;5117859;28;20291;-38
2021/03/16 04:03:00;;;;;;;1999.90;999.90;;;;;;;;;;5121690;28;20201;-38
2021/03/16 04:05:50;;;;;;;1999.90;999.90;;;;;;;;;;5121442;28;20417;-36
2021/03/16 04:08:37;;;;;;;1999.90;999.90;;;;;;;;;;5121488;28;20223;-37
2021/03/16 04:11:24;;;;;;;1999.90;999.90;;;;;;;;;;5121481;28;20676;-33
2021/03/16 04:14:13;;;;;;;1999.90;999.90;;;;;;;;;;5121332;28;20471;-36
2021/03/16 04:16:59;;;;;;;1999.90;999.90;;;;;;;;;;5121265;28;20198;-36
2021/03/16 04:19:44;;;;;;;1999.90;999.90;;;;;;;;;;5121446;28;20214;-33
2021/03/16 04:22:30;;;;;;;1999.90;999.90;;;;;;;;;;5121141;28;20201;-37
2021/03/16 04:25:16;;;;;;;1999.90;999.90;;;;;;;;;;5121521;28;20203;-36
2021/03/16 04:28:03;;;;;;;1999.90;999.90;;;;;;;;;;5120940;28;20226;-32
2021/03/16 04:30:49;;;;;;;1999.90;999.90;;;;;;;;;;5120820;28;20286;-35
2021/03/16 04:33:34;;;;;;;1999.90;999.90;;;;;;;;;;5121311;28;20196;-35
2021/03/16 04:36:20;;;;;;;1999.90;999.90;;;;;;;;;;5120989;28;20199;-34
2021/03/16 04:39:05;;;;;;;1999.90;999.90;;;;;;;;;;5119999;28;20199;-34
2021/03/16 04:41:51;;;;;;;1999.90;999.90;;;;;;;;;;5120998;28;20201;-36
2021/03/16 04:44:37;;;;;;;1999.90;999.90;;;;;;;;;;5120841;28;20230;-37
2021/03/16 04:47:23;;;;;;;1999.90;999.90;;;;;;;;;;5120865;28;20337;-36
2021/03/16 04:50:09;;;;;;;1999.90;999.90;;;;;;;;;;5121501;28;20208;-37
2021/03/16 04:52:54;;;;;;;1999.90;999.90;;;;;;;;;;5120758;28;20261;-33
2021/03/16 04:55:40;;;;;;;1999.90;999.90;;;;;;;;;;5120758;28;20205;-36
2021/03/16 04:58:25;;;;;;;1999.90;999.90;;;;;;;;;;5120304;28;20266;-36
2021/03/16 05:01:11;;;;;;;1999.90;999.90;;;;;;;;;;5120365;28;20251;-33
2021/03/16 05:03:57;;;;;;;1999.90;999.90;;;;;;;;;;5120176;28;20195;-34
2021/03/16 05:06:45;;;;;;;1999.90;999.90;;;;;;;;;;5119969;28;20201;-35
2021/03/16 05:09:30;;;;;;;1999.90;999.90;;;;;;;;;;5119847;28;20197;-36
2021/03/16 05:12:16;;;;;;;1999.90;999.90;;;;;;;;;;5119761;28;20255;-35
2021/03/16 05:15:03;;;;;;;1999.90;999.90;;;;;;;;;;5119765;28;20494;-36
2021/03/16 05:17:49;;;;;;;1999.90;999.90;;;;;;;;;;5120145;28;20212;-36
2021/03/16 05:20:34;;;;;;;1999.90;999.90;;;;;;;;;;5120221;28;20205;-36
2021/03/16 05:23:20;;;;;;;1999.90;999.90;;;;;;;;;;5119794;28;20205;-34
2021/03/16 05:26:06;;;;;;;1999.90;999.90;;;;;;;;;;5120194;28;20202;-33
2021/03/16 05:28:51;;;;;;;1999.90;999.90;;;;;;;;;;5120103;28;20301;-33
2021/03/16 05:31:38;;;;;;;1999.90;999.90;;;;;;;;;;5119032;28;20204;-33
2021/03/16 05:34:25;;;;;;;1999.90;999.90;;;;;;;;;;5119967;28;20192;-37
2021/03/16 05:37:11;;;;;;;1999.90;999.90;;;;;;;;;;5119583;28;20365;-34
2021/03/16 05:39:56;;;;;;;1999.90;999.90;;;;;;;;;;5119823;28;20590;-35
2021/03/16 05:42:42;;;;;;;1999.90;999.90;;;;;;;;;;5119646;28;20204;-34
2021/03/16 05:45:27;;;;;;;1999.90;999.90;;;;;;;;;;5119723;28;20295;-35
2021/03/16 05:48:13;;;;;;;1999.90;999.90;;;;;;;;;;5118991;28;20293;-34
2021/03/16 05:51:02;;;;;;;1999.90;999.90;;;;;;;;;;5119417;28;20209;-37
2021/03/16 05:53:51;;;;;;;1999.90;999.90;;;;;;;;;;5119507;28;20276;-37
2021/03/16 05:56:39;;;;;;;1999.90;999.90;;;;;;;;;;5119381;28;20192;-39
2021/03/16 05:59:41;;;;;;;1999.90;999.90;;;;;;;;;;5118691;28;20196;-33
2021/03/16 06:02:27;;;;;;;1999.90;999.90;;;;;;;;;;5119415;28;20197;-38
2021/03/16 06:05:13;;;;;;;1999.90;999.90;;;;;;;;;;5119123;28;20209;-39
2021/03/16 06:08:00;;;;;;;1999.90;999.90;;;;;;;;;;5118885;28;20237;-40
2021/03/16 06:10:45;;;;;;;1999.90;999.90;;;;;;;;;;5118155;28;20192;-40
2021/03/16 06:13:31;;;;;;;1999.90;999.90;;;;;;;;;;5117981;28;20201;-41
2021/03/16 06:16:17;;;;;;;1999.90;999.90;;;;;;;;;;5117079;28;20217;-38
2021/03/16 06:19:09;;;;;;;1999.90;999.90;;;;;;;;;;5118681;28;20574;-39
2021/03/16 06:21:59;;;;;;;1999.90;999.90;;;;;;;;;;5118205;28;20214;-39
2021/03/16 06:24:46;;;;;;;1999.90;999.90;;;;;;;;;;5116074;28;20197;-39
2021/03/16 06:27:32;;;;;;;1999.90;999.90;;;;;;;;;;5118582;28;20787;-37
2021/03/16 06:30:24;;;;;;;1999.90;999.90;;;;;;;;;;5118885;28;20226;-39
2021/03/16 06:33:16;;;;;;;1999.90;999.90;;;;;;;;;;5118090;28;20195;-34
2021/03/16 06:36:03;;;;;;;1999.90;999.90;;;;;;;;;;5097222;28;20203;-40
2021/03/16 06:38:49;;;;;;;1999.90;999.90;;;;;;;;;;5109320;28;20207;-39
2021/03/16 06:41:36;;;;;;;1999.90;999.90;;;;;;;;;;5117608;28;20274;-39
2021/03/16 06:44:23;;;;;;;1999.90;999.90;;;;;;;;;;5117547;28;20655;-41
2021/03/16 06:47:13;;;;;;;1999.90;999.90;;;;;;;;;;5118369;28;20225;-42
2021/03/16 06:50:01;;;;;;;1999.90;999.90;;;;;;;;;;5117604;28;20201;-42
2021/03/16 06:52:50;;;;;;;1999.90;999.90;;;;;;;;;;5117803;28;20199;-41
2021/03/16 06:55:35;;;;;;;1999.90;999.90;;;;;;;;;;5117711;28;20482;-39
2021/03/16 06:58:25;;;;;;;1999.90;999.90;;;;;;;;;;5117900;28;21221;-39
2021/03/16 07:01:13;;;;;;;1999.90;999.90;;;;;;;;;;5117899;28;20489;-40
2021/03/16 07:04:11;;;;;;;1999.90;999.90;;;;;;;;;;5117129;28;20276;-40
2021/03/16 07:06:57;;;;;;;1999.90;999.90;;;;;;;;;;5118205;28;20254;-42
2021/03/16 07:09:42;;;;;;;1999.90;999.90;;;;;;;;;;5117663;28;20469;-42
2021/03/16 07:12:35;;;;;;;1999.90;999.90;;;;;;;;;;5117398;28;20358;-41
2021/03/16 07:15:21;;;;;;;1999.90;999.90;;;;;;;;;;5118005;28;20208;-40
2021/03/16 07:18:16;;;;;;;1999.90;999.90;;;;;;;;;;5117298;28;20198;-40
2021/03/16 07:21:04;;;;;;;1999.90;999.90;;;;;;;;;;5116603;28;20469;-42
2021/03/16 07:23:50;;;;;;;1999.90;999.90;;;;;;;;;;5116857;28;20207;-41
2021/03/16 07:26:36;;;;;;;1999.90;999.90;;;;;;;;;;5117478;28;20207;-41
2021/03/16 07:29:22;;;;;;;1999.90;999.90;;;;;;;;;;5117566;28;20199;-40
2021/03/16 07:32:22;;;;;;;1999.90;999.90;;;;;;;;;;5116534;28;20505;-40
2021/03/16 07:35:08;;;;;;;1999.90;999.90;;;;;;;;;;5097115;28;20195;-37
2021/03/16 07:37:55;;;;;;;1999.90;999.90;;;;;;;;;;5097358;28;20199;-42
2021/03/16 07:40:43;;;;;;;1999.90;999.90;;;;;;;;;;5096428;28;20206;-41
2021/03/16 07:43:32;;;;;;;1999.90;999.90;;;;;;;;;;5096875;28;20269;-42
2021/03/16 07:46:20;;;;;;;1999.90;999.90;;;;;;;;;;5096428;28;20538;-41
2021/03/16 07:49:07;;;;;;;1999.90;999.90;;;;;;;;;;5096346;28;20509;-41
2021/03/16 07:52:01;;;;;;;1999.90;999.90;;;;;;;;;;5103203;28;20210;-43
2021/03/16 07:54:56;;;;;;;1999.90;999.90;;;;;;;;;;5117297;28;20600;-43
2021/03/16 07:58:08;;;;;;;1999.90;999.90;;;;;;;;;;5117339;28;20304;-41
2021/03/16 08:01:14;;;;;;;1999.90;999.90;;;;;;;;;;5116833;28;20200;-42
2021/03/16 08:04:07;;;;;;;1999.90;999.90;;;;;;;;;;5117126;28;20725;-42
2021/03/16 08:06:58;;;;;;;1999.90;999.90;;;;;;;;;;5116565;28;20199;-42
2021/03/16 08:09:45;;;;;;;1999.90;999.90;;;;;;;;;;5111928;28;20198;-42
2021/03/16 08:12:30;;;;;;;1999.90;999.90;;;;;;;;;;5113046;28;20499;-42
2021/03/16 08:15:17;;;;;;;1999.90;999.90;;;;;;;;;;5115538;28;20253;-42
2021/03/16 08:18:09;;;;;;;1999.90;999.90;;;;;;;;;;5114712;28;20206;-42
2021/03/16 08:20:55;;;;;;;1999.90;999.90;;;;;;;;;;5114786;28;20248;-41
2021/03/16 08:23:42;;;;;;;1999.90;999.90;;;;;;;;;;5114167;28;20200;-41
2021/03/16 08:26:28;;;;;;;1999.90;999.90;;;;;;;;;;5104124;28;20199;-41
2021/03/16 08:29:14;;;;;;;1999.90;999.90;;;;;;;;;;5110750;28;20223;-42
2021/03/16 08:32:00;;;;;;;1999.90;999.90;;;;;;;;;;5114608;28;20348;-41
2021/03/16 08:34:48;;;;;;;1999.90;999.90;;;;;;;;;;5115761;28;20212;-40
2021/03/16 08:37:39;;;;;;;1999.90;999.90;;;;;;;;;;5116583;28;20201;-42
2021/03/16 08:40:37;;;;;;;1999.90;999.90;;;;;;;;;;5116598;28;20195;-42
2021/03/16 08:43:26;;;;;;;1999.90;999.90;;;;;;;;;;5116043;28;20195;-43
2021/03/16 08:46:12;;;;;;;1999.90;999.90;;;;;;;;;;5116001;28;20248;-42
2021/03/16 08:48:58;;;;;;;1999.90;999.90;;;;;;;;;;5119567;28;20339;-43
2021/03/16 08:51:43;;;;;;;1999.90;999.90;;;;;;;;;;5119932;28;20303;-43
2021/03/16 08:54:29;;;;;;;1999.90;999.90;;;;;;;;;;5119579;28;20200;-43
2021/03/16 08:57:20;;;;;;;1999.90;999.90;;;;;;;;;;5119964;28;20200;-42
2021/03/16 09:00:09;;;;;;;1999.90;999.90;;;;;;;;;;5119100;28;20194;-43
2021/03/16 09:02:54;;;;;;;1999.90;999.90;;;;;;;;;;5119770;28;20487;-42
2021/03/16 09:05:41;;;;;;;1999.90;999.90;;;;;;;;;;5119088;28;20722;-43
2021/03/16 09:08:27;;;;;;;1999.90;999.90;;;;;;;;;;5101469;28;20229;-43
2021/03/16 09:11:13;;;;;;;1999.90;999.90;;;;;;;;;;5099594;28;20199;-42
2021/03/16 09:14:07;;;;;;;1999.90;999.90;;;;;;;;;;5098800;28;20215;-42
2021/03/16 09:16:56;;;;;;;1999.90;999.90;;;;;;;;;;5098649;28;20199;-41
2021/03/16 09:19:48;;;;;;;1999.90;999.90;;;;;;;;;;5098476;28;20203;-42
2021/03/16 09:22:34;;;;;;;1999.90;999.90;;;;;;;;;;5098704;28;20560;-42
2021/03/16 09:25:24;;;;;;;1999.90;999.90;;;;;;;;;;5098550;28;20594;-42
2021/03/16 09:28:11;;;;;;;1999.90;999.90;;;;;;;;;;5098348;28;20750;-42
2021/03/16 09:31:01;;;;;;;1999.90;999.90;;;;;;;;;;5098522;28;20200;-42
2021/03/16 09:33:47;;;;;;;1999.90;999.90;;;;;;;;;;5098855;28;20203;-41
2021/03/16 09:36:34;;;;;;;1999.90;999.90;;;;;;;;;;5117037;28;20210;-42
2021/03/16 09:39:21;;;;;;;1999.90;999.90;;;;;;;;;;5118790;28;20223;-42
2021/03/16 09:42:07;;;;;;;1999.90;999.90;;;;;;;;;;5118633;28;20590;-42
2021/03/16 09:44:52;;;;;;;1999.90;999.90;;;;;;;;;;5118139;28;20740;-40
2021/03/16 09:47:57;;;;;;;1999.90;999.90;;;;;;;;;;5118527;28;20656;-36
2021/03/16 09:50:44;;;;;;;1999.90;999.90;;;;;;;;;;5118003;28;20206;-36
2021/03/16 09:53:30;;;;;;;1999.90;999.90;;;;;;;;;;5118122;28;20300;-33
2021/03/16 09:56:17;;;;;;;1999.90;999.90;;;;;;;;;;5117111;28;20233;-34
2021/03/16 09:59:03;;;;;;;1999.90;999.90;;;;;;;;;;5116985;28;20622;-37
2021/03/16 10:02:02;;;;;;;1999.90;999.90;;;;;;;;;;5117516;28;20275;-42
2021/03/16 10:04:50;;;;;;;1999.90;999.90;;;;;;;;;;5116760;28;20228;-41
2021/03/16 10:07:37;;;;;;;1999.90;999.90;;;;;;;;;;5117298;28;20202;-42
2021/03/16 10:10:23;;;;;;;1999.90;999.90;;;;;;;;;;5117771;28;20202;-41
2021/03/16 10:13:12;;;;;;;1999.90;999.90;;;;;;;;;;5117394;28;20199;-42
2021/03/16 10:15:57;;;;;;;1999.90;999.90;;;;;;;;;;5119881;28;20194;-42
2021/03/16 10:18:46;;;;;;;1999.90;999.90;;;;;;;;;;5117821;28;20211;-42
2021/03/16 10:21:35;;;;;;;1999.90;999.90;;;;;;;;;;5118381;28;20244;-43
2021/03/16 10:24:23;;;;;;;1999.90;999.90;;;;;;;;;;5118486;28;20218;-43
2021/03/16 10:27:09;;;;;;;1999.90;999.90;;;;;;;;;;5118029;28;20308;-42
2021/03/16 10:29:56;;;;;;;1999.90;999.90;;;;;;;;;;5118188;28;20359;-43
2021/03/16 10:32:45;;;;;;;1999.90;999.90;;;;;;;;;;5118157;28;20484;-43
2021/03/16 10:35:32;;;;;;;1999.90;999.90;;;;;;;;;;5117751;28;20600;-48
2021/03/16 10:38:26;;;;;;;1999.90;999.90;;;;;;;;;;5117625;28;20634;-42
2021/03/16 10:41:15;;;;;;;1999.90;999.90;;;;;;;;;;5117933;28;20307;-42
2021/03/16 10:44:00;;;;;;;1999.90;999.90;;;;;;;;;;5117238;28;20234;-43
2021/03/16 10:49:28;;;;;;;1999.90;999.90;;;;;;;;;;5075626;28;20238;-32
2021/03/16 10:52:14;;;;;;;1999.90;999.90;;;;;;;;;;5078681;28;20196;-37
2021/03/16 10:55:01;;;;;;;1999.90;999.90;;;;;;;;;;5079870;28;20200;-32
2021/03/16 10:57:47;;;;;;;1999.90;999.90;;;;;;;;;;5079467;28;20204;-32
2021/03/16 11:00:33;;;;;;;1999.90;999.90;;;;;;;;;;5079157;28;20354;-32
2021/03/16 11:03:22;;;;;;;1999.90;999.90;;;;;;;;;;5078701;28;20204;-32
2021/03/16 11:06:08;;;;;;;1999.90;999.90;;;;;;;;;;5079397;28;20204;-32
2021/03/16 11:09:00;;;;;;;1999.90;999.90;;;;;;;;;;5078516;28;20477;-32
2021/03/16 11:11:46;;;;;;;1999.90;999.90;;;;;;;;;;5077057;28;20195;-32
2021/03/16 11:14:33;;;;;;;1999.90;999.90;;;;;;;;;;5093010;28;20253;-32
2021/03/16 11:17:25;;;;;;;1999.90;999.90;;;;;;;;;;5093223;28;20198;-31
2021/03/16 11:20:14;;;;;;;1999.90;999.90;;;;;;;;;;5083450;28;20195;-34
2021/03/16 11:23:00;;;;;;;1999.90;999.90;;;;;;;;;;5078367;28;20200;-31
2021/03/16 11:25:48;;;;;;;1999.90;999.90;;;;;;;;;;5078440;28;20200;-32
2021/03/16 11:28:37;;;;;;;1999.90;999.90;;;;;;;;;;5079165;28;20325;-31
2021/03/16 11:31:24;;;;;;;1999.90;999.90;;;;;;;;;;5078655;28;20289;-31
2021/03/16 11:34:17;;;;;;;1999.90;999.90;;;;;;;;;;5078732;28;20623;-31
2021/03/16 11:37:02;;;;;;;1999.90;999.90;;;;;;;;;;5080397;28;20310;-31
2021/03/16 11:39:50;;;;;;;1999.90;999.90;;;;;;;;;;5077405;28;20216;-30
2021/03/16 11:42:36;;;;;;;1999.90;999.90;;;;;;;;;;5068637;28;20207;-31
2021/03/16 11:45:25;;;;;;;1999.90;999.90;;;;;;;;;;5068537;28;20216;-31
2021/03/16 11:48:11;;;;;;;1999.90;999.90;;;;;;;;;;5066920;28;20228;-31
2021/03/16 11:50:57;;;;;;;1999.90;999.90;;;;;;;;;;5077589;28;20577;-31
2021/03/16 11:53:50;;;;;;;1999.90;999.90;;;;;;;;;;5066469;28;20318;-31
2021/03/16 11:56:36;;;;;;;1999.90;999.90;;;;;;;;;;5064877;28;20228;-33
2021/03/16 11:59:21;;;;;;;1999.90;999.90;;;;;;;;;;5065428;28;20208;-33
2021/03/16 12:02:08;;;;;;;1999.90;999.90;;;;;;;;;;5061082;28;20266;-31
2021/03/16 12:04:53;;;;;;;1999.90;999.90;;;;;;;;;;5062794;28;20298;-31
2021/03/16 12:07:39;;;;;;;1999.90;999.90;;;;;;;;;;5065207;28;20621;-31
2021/03/16 12:10:25;;;;;;;1999.90;999.90;;;;;;;;;;5063181;28;20523;-31
2021/03/16 12:13:13;;;;;;;1999.90;999.90;;;;;;;;;;5074856;28;20350;-32
2021/03/16 12:16:20;;;;;;;1999.90;999.90;;;;;;;;;;5071453;28;20232;-34
2021/03/16 12:19:13;;;;;;;1999.90;999.90;;;;;;;;;;5077447;28;20736;-30
2021/03/16 12:22:04;;;;;;;1999.90;999.90;;;;;;;;;;5079477;28;20609;-33
2021/03/16 12:24:50;;;;;;;1999.90;999.90;;;;;;;;;;5081377;28;20258;-32
2021/03/16 12:27:36;;;;;;;1999.90;999.90;;;;;;;;;;5076255;28;20210;-34
2021/03/16 12:30:23;;;;;;;1999.90;999.90;;;;;;;;;;5070402;28;20432;-31
2021/03/16 12:33:09;;;;;;;1999.90;999.90;;;;;;;;;;5067510;28;20269;-30
2021/03/16 12:35:59;;;;;;;1999.90;999.90;;;;;;;;;;5064020;28;20207;-31
2021/03/16 12:38:45;;;;;;;1999.90;999.90;;;;;;;;;;5061384;28;20197;-31
2021/03/16 12:41:35;;;;;;;1999.90;999.90;;;;;;;;;;5076317;28;20208;-30
2021/03/16 12:44:21;;;;;;;1999.90;999.90;;;;;;;;;;5065621;28;20212;-30
2021/03/16 12:47:08;;;;;;;1999.90;999.90;;;;;;;;;;5080432;28;20199;-30
2021/03/16 12:49:54;;;;;;;1999.90;999.90;;;;;;;;;;5024699;28;20344;-31
2021/03/16 12:52:40;;;;;;;1999.90;999.90;;;;;;;;;;5029140;28;20206;-32
2021/03/16 12:55:26;;;;;;;1999.90;999.90;;;;;;;;;;5023913;28;20719;-29
2021/03/16 12:58:17;;;;;;;1999.90;999.90;;;;;;;;;;5034273;28;20778;-30
2021/03/16 13:01:09;;;;;;;1999.90;999.90;;;;;;;;;;5041440;28;20210;-29
2021/03/16 13:03:55;;;;;;;1999.90;999.90;;;;;;;;;;5036797;28;20261;-36
2021/03/16 13:06:44;;;;;;;1999.90;999.90;;;;;;;;;;5028933;28;20264;-30
2021/03/16 13:09:32;;;;;;;1999.90;999.90;;;;;;;;;;5022563;28;20234;-32
2021/03/16 13:12:18;;;;;;;1999.90;999.90;;;;;;;;;;5037594;28;20611;-30
2021/03/16 13:15:05;;;;;;;1999.90;999.90;;;;;;;;;;5041134;28;20206;-30
2021/03/16 13:17:51;;;;;;;1999.90;999.90;;;;;;;;;;5044638;28;20181;-32
2021/03/16 13:20:38;;;;;;;1999.90;999.90;;;;;;;;;;5035361;28;20185;-32
2021/03/16 13:23:23;;;;;;;1999.90;999.90;;;;;;;;;;5032039;28;20202;-30
2021/03/16 13:26:11;;;;;;;1999.90;999.90;;;;;;;;;;5022476;28;20290;-32
2021/03/16 13:29:00;;;;;;;1999.90;999.90;;;;;;;;;;5020878;28;20273;-31
2021/03/16 13:31:51;;;;;;;1999.90;999.90;;;;;;;;;;5020915;28;20208;-31
2021/03/16 13:34:39;;;;;;;1999.90;999.90;;;;;;;;;;5020779;28;20202;-32
2021/03/16 13:37:28;;;;;;;1999.90;999.90;;;;;;;;;;5023360;28;20205;-30
2021/03/16 13:40:16;;;;;;;1999.90;999.90;;;;;;;;;;5030725;28;20193;-31
2021/03/16 13:43:02;;;;;;;1999.90;999.90;;;;;;;;;;5040844;28;20491;-32
2021/03/16 13:45:49;;;;;;;1999.90;999.90;;;;;;;;;;5039868;28;20205;-31
2021/03/16 13:48:37;;;;;;;1999.90;999.90;;;;;;;;;;5061169;28;20232;-31
2021/03/16 13:51:23;;;;;;;1999.90;999.90;;;;;;;;;;5080990;28;20204;-31
2021/03/16 13:54:16;;;;;;;1999.90;999.90;;;;;;;;;;5080632;28;20222;-31
2021/03/16 13:57:01;;;;;;;1999.90;999.90;;;;;;;;;;5081293;28;20211;-32
2021/03/16 13:59:48;;;;;;;1999.90;999.90;;;;;;;;;;5084526;28;20192;-32
2021/03/16 14:02:33;;;;;;;1999.90;999.90;;;;;;;;;;5084710;28;20233;-31
2021/03/16 14:05:19;;;;;;;1999.90;999.90;;;;;;;;;;5080143;28;20540;-32
2021/03/16 14:08:06;;;;;;;1999.90;999.90;;;;;;;;;;5079498;28;20207;-31
2021/03/16 14:10:52;;;;;;;1999.90;999.90;;;;;;;;;;5080119;28;20204;-32
2021/03/16 14:13:38;;;;;;;1999.90;999.90;;;;;;;;;;5079152;28;20199;-31
2021/03/16 14:16:32;;;;;;;1999.90;999.90;;;;;;;;;;5079191;28;20679;-31
2021/03/16 14:19:25;;;;;;;1999.90;999.90;;;;;;;;;;5070583;28;20302;-32
2021/03/16 14:22:15;;;;;;;1999.90;999.90;;;;;;;;;;5059086;28;20271;-34
2021/03/16 14:25:06;;;;;;;1999.90;999.90;;;;;;;;;;5076004;28;20211;-31
2021/03/16 14:27:52;;;;;;;1999.90;999.90;;;;;;;;;;5079511;28;20358;-31
2021/03/16 14:30:39;;;;;;;1999.90;999.90;;;;;;;;;;5078675;28;20200;-31
2021/03/16 14:33:26;;;;;;;1999.90;999.90;;;;;;;;;;5077993;28;20297;-32
2021/03/16 14:36:16;;;;;;;1999.90;999.90;;;;;;;;;;5079517;28;20222;-32
2021/03/16 14:39:02;;;;;;;1999.90;999.90;;;;;;;;;;5079219;28;20200;-29
2021/03/16 14:41:48;;;;;;;1999.90;999.90;;;;;;;;;;5059381;28;20205;-32
2021/03/16 14:44:33;;;;;;;1999.90;999.90;;;;;;;;;;5059345;28;20270;-29
2021/03/16 14:47:19;;;;;;;1999.90;999.90;;;;;;;;;;5059111;28;20423;-29
2021/03/16 14:50:06;;;;;;;1999.90;999.90;;;;;;;;;;5075340;28;20240;-30
2021/03/16 14:52:52;;;;;;;1999.90;999.90;;;;;;;;;;5078557;28;20474;-30
2021/03/16 14:55:38;;;;;;;1999.90;999.90;;;;;;;;;;5078986;28;20483;-30
2021/03/16 14:58:27;;;;;;;1999.90;999.90;;;;;;;;;;5077863;28;20286;-29
2021/03/16 15:01:12;;;;;;;1999.90;999.90;;;;;;;;;;5077687;28;20258;-30
2021/03/16 15:03:57;;;;;;;1999.90;999.90;;;;;;;;;;5079638;28;20203;-30
2021/03/16 15:06:44;;;;;;;1999.90;999.90;;;;;;;;;;5059116;28;20203;-30
2021/03/16 15:09:30;;;;;;;1999.90;999.90;;;;;;;;;;5058855;28;20503;-30
2021/03/16 15:12:15;;;;;;;1999.90;999.90;;;;;;;;;;5058413;28;20582;-31
2021/03/16 15:15:00;;;;;;;1999.90;999.90;;;;;;;;;;5058809;28;20195;-30
2021/03/16 15:17:46;;;;;;;1999.90;999.90;;;;;;;;;;5058661;28;20630;-30
2021/03/16 15:20:41;;;;;;;1999.90;999.90;;;;;;;;;;5058300;28;20594;-31
2021/03/16 15:23:28;;;;;;;1999.90;999.90;;;;;;;;;;5058545;28;20333;-30
2021/03/16 15:26:14;;;;;;;1999.90;999.90;;;;;;;;;;5058116;28;20199;-30
2021/03/16 15:29:00;;;;;;;1999.90;999.90;;;;;;;;;;5057856;28;20287;-30
2021/03/16 15:31:47;;;;;;;1999.90;999.90;;;;;;;;;;5059359;28;20255;-30
2021/03/16 15:34:33;;;;;;;1999.90;999.90;;;;;;;;;;5058515;28;20293;-31
2021/03/16 15:37:24;;;;;;;1999.90;999.90;;;;;;;;;;5059003;28;20633;-31